sensor_id;sensor_type;location;lat;lon;timestamp;pressure;altitude;pressure_sealevel;temperature
12918;BMP180;6526;54.312;13.092;2023-03-12T00:00:54;101034.00;;;4.20
12918;BMP180;6526;54.312;13.092;2023-03-12T00:03:20;101046.00;;;4.10
12918;BMP180;6526;54.312;13.092;2023-03-12T00:05:46;101028.00;;;4.00
12918;BMP180;6526;54.312;13.092;2023-03-12T00:08:12;101045.00;;;4.00
12918;BMP180;6526;54.312;13.092;2023-03-12T00:10:40;101039.00;;;4.00
12918;BMP180;6526;54.312;13.092;2023-03-12T00:13:06;101054.00;;;4.10
12918;BMP180;6526;54.312;13.092;2023-03-12T00:15:38;101054.00;;;4.00
12918;BMP180;6526;54.312;13.092;2023-03-12T00:18:04;101057.00;;;4.10
12918;BMP180;6526;54.312;13.092;2023-03-12T00:20:31;101051.00;;;4.00
12918;BMP180;6526;54.312;13.092;2023-03-12T00:22:57;101055.00;;;3.90
12918;BMP180;6526;54.312;13.092;2023-03-12T00:25:23;101053.00;;;3.90
12918;BMP180;6526;54.312;13.092;2023-03-12T00:27:49;101062.00;;;4.00
12918;BMP180;6526;54.312;13.092;2023-03-12T00:30:15;101061.00;;;4.00
12918;BMP180;6526;54.312;13.092;2023-03-12T00:32:41;101055.00;;;4.00
12918;BMP180;6526;54.312;13.092;2023-03-12T00:35:11;101059.00;;;3.90
12918;BMP180;6526;54.312;13.092;2023-03-12T00:37:37;101063.00;;;3.90
12918;BMP180;6526;54.312;13.092;2023-03-12T00:40:04;101055.00;;;3.90
12918;BMP180;6526;54.312;13.092;2023-03-12T00:42:33;101062.00;;;3.90
12918;BMP180;6526;54.312;13.092;2023-03-12T00:44:59;101063.00;;;3.80
12918;BMP180;6526;54.312;13.092;2023-03-12T00:47:25;101059.00;;;3.80
12918;BMP180;6526;54.312;13.092;2023-03-12T00:49:51;101064.00;;;3.90
12918;BMP180;6526;54.312;13.092;2023-03-12T00:52:17;101068.00;;;3.90
12918;BMP180;6526;54.312;13.092;2023-03-12T00:54:43;101064.00;;;3.90
12918;BMP180;6526;54.312;13.092;2023-03-12T00:57:09;101085.00;;;4.00
12918;BMP180;6526;54.312;13.092;2023-03-12T00:59:35;101080.00;;;4.10
12918;BMP180;6526;54.312;13.092;2023-03-12T01:02:05;101074.00;;;3.90
12918;BMP180;6526;54.312;13.092;2023-03-12T01:04:32;101062.00;;;3.90
12918;BMP180;6526;54.312;13.092;2023-03-12T01:06:58;101075.00;;;3.90
12918;BMP180;6526;54.312;13.092;2023-03-12T01:09:24;101073.00;;;3.80
12918;BMP180;6526;54.312;13.092;2023-03-12T01:11:50;101068.00;;;3.80
12918;BMP180;6526;54.312;13.092;2023-03-12T01:14:16;101072.00;;;3.80
12918;BMP180;6526;54.312;13.092;2023-03-12T01:16:42;101075.00;;;3.80
12918;BMP180;6526;54.312;13.092;2023-03-12T01:19:08;101080.00;;;3.80
12918;BMP180;6526;54.312;13.092;2023-03-12T01:21:34;101085.00;;;3.90
12918;BMP180;6526;54.312;13.092;2023-03-12T01:24:00;101082.00;;;4.00
12918;BMP180;6526;54.312;13.092;2023-03-12T01:26:26;101083.00;;;3.90
12918;BMP180;6526;54.312;13.092;2023-03-12T01:28:52;101080.00;;;3.90
12918;BMP180;6526;54.312;13.092;2023-03-12T01:31:19;101094.00;;;3.80
12918;BMP180;6526;54.312;13.092;2023-03-12T01:33:50;101090.00;;;3.80
12918;BMP180;6526;54.312;13.092;2023-03-12T01:36:21;101095.00;;;3.90
12918;BMP180;6526;54.312;13.092;2023-03-12T01:38:53;101103.00;;;3.90
12918;BMP180;6526;54.312;13.092;2023-03-12T01:41:22;101104.00;;;3.90
12918;BMP180;6526;54.312;13.092;2023-03-12T01:43:48;101101.00;;;3.90
12918;BMP180;6526;54.312;13.092;2023-03-12T01:48:55;101101.00;;;3.80
12918;BMP180;6526;54.312;13.092;2023-03-12T01:51:24;101088.00;;;3.80
12918;BMP180;6526;54.312;13.092;2023-03-12T01:53:54;101092.00;;;3.90
12918;BMP180;6526;54.312;13.092;2023-03-12T01:56:27;101100.00;;;3.90
12918;BMP180;6526;54.312;13.092;2023-03-12T01:58:59;101095.00;;;3.90
12918;BMP180;6526;54.312;13.092;2023-03-12T02:01:25;101102.00;;;3.90
12918;BMP180;6526;54.312;13.092;2023-03-12T02:03:54;101099.00;;;4.00
12918;BMP180;6526;54.312;13.092;2023-03-12T02:06:28;101105.00;;;3.90
12918;BMP180;6526;54.312;13.092;2023-03-12T02:08:56;101108.00;;;3.80
12918;BMP180;6526;54.312;13.092;2023-03-12T02:11:24;101103.00;;;3.80
12918;BMP180;6526;54.312;13.092;2023-03-12T02:13:50;101110.00;;;3.80
12918;BMP180;6526;54.312;13.092;2023-03-12T02:16:16;101116.00;;;3.80
12918;BMP180;6526;54.312;13.092;2023-03-12T02:18:43;101102.00;;;3.80
12918;BMP180;6526;54.312;13.092;2023-03-12T02:21:28;101103.00;;;3.90
12918;BMP180;6526;54.312;13.092;2023-03-12T02:24:14;101112.00;;;3.90
12918;BMP180;6526;54.312;13.092;2023-03-12T02:26:42;101121.00;;;3.90
12918;BMP180;6526;54.312;13.092;2023-03-12T02:29:10;101120.00;;;3.90
12918;BMP180;6526;54.312;13.092;2023-03-12T02:31:46;101129.00;;;3.90
12918;BMP180;6526;54.312;13.092;2023-03-12T02:34:14;101120.00;;;3.80
12918;BMP180;6526;54.312;13.092;2023-03-12T02:36:40;101094.00;;;3.80
12918;BMP180;6526;54.312;13.092;2023-03-12T02:39:06;101134.00;;;3.80
12918;BMP180;6526;54.312;13.092;2023-03-12T02:41:35;101128.00;;;3.80
12918;BMP180;6526;54.312;13.092;2023-03-12T02:46:46;101130.00;;;3.80
12918;BMP180;6526;54.312;13.092;2023-03-12T02:49:13;101152.00;;;3.80
12918;BMP180;6526;54.312;13.092;2023-03-12T02:51:41;101149.00;;;3.80
12918;BMP180;6526;54.312;13.092;2023-03-12T02:54:08;101152.00;;;3.80
12918;BMP180;6526;54.312;13.092;2023-03-12T02:56:34;101145.00;;;3.90
12918;BMP180;6526;54.312;13.092;2023-03-12T02:59:01;101161.00;;;3.90
12918;BMP180;6526;54.312;13.092;2023-03-12T03:01:27;101154.00;;;3.90
12918;BMP180;6526;54.312;13.092;2023-03-12T03:03:54;101163.00;;;3.90
12918;BMP180;6526;54.312;13.092;2023-03-12T03:06:20;101161.00;;;3.90
12918;BMP180;6526;54.312;13.092;2023-03-12T03:08:46;101175.00;;;3.80
12918;BMP180;6526;54.312;13.092;2023-03-12T03:11:12;101178.00;;;3.90
12918;BMP180;6526;54.312;13.092;2023-03-12T03:13:38;101173.00;;;3.90
12918;BMP180;6526;54.312;13.092;2023-03-12T03:16:05;101176.00;;;3.80
12918;BMP180;6526;54.312;13.092;2023-03-12T03:18:31;101169.00;;;3.90
12918;BMP180;6526;54.312;13.092;2023-03-12T03:21:01;101173.00;;;3.80
12918;BMP180;6526;54.312;13.092;2023-03-12T03:23:28;101179.00;;;3.70
12918;BMP180;6526;54.312;13.092;2023-03-12T03:25:54;101165.00;;;3.70
12918;BMP180;6526;54.312;13.092;2023-03-12T03:28:23;101175.00;;;3.70
12918;BMP180;6526;54.312;13.092;2023-03-12T03:30:52;101179.00;;;3.70
12918;BMP180;6526;54.312;13.092;2023-03-12T03:33:19;101184.00;;;3.70
12918;BMP180;6526;54.312;13.092;2023-03-12T03:35:46;101180.00;;;3.70
12918;BMP180;6526;54.312;13.092;2023-03-12T03:38:12;101197.00;;;3.80
12918;BMP180;6526;54.312;13.092;2023-03-12T03:40:38;101199.00;;;3.80
12918;BMP180;6526;54.312;13.092;2023-03-12T03:43:04;101198.00;;;3.80
12918;BMP180;6526;54.312;13.092;2023-03-12T03:45:30;101189.00;;;3.90
12918;BMP180;6526;54.312;13.092;2023-03-12T03:47:56;101191.00;;;4.00
12918;BMP180;6526;54.312;13.092;2023-03-12T03:50:22;101193.00;;;3.90
12918;BMP180;6526;54.312;13.092;2023-03-12T03:52:49;101194.00;;;3.90
12918;BMP180;6526;54.312;13.092;2023-03-12T03:55:15;101208.00;;;3.80
12918;BMP180;6526;54.312;13.092;2023-03-12T03:57:41;101200.00;;;3.80
12918;BMP180;6526;54.312;13.092;2023-03-12T04:00:11;101209.00;;;3.80
12918;BMP180;6526;54.312;13.092;2023-03-12T04:02:38;101196.00;;;3.80
12918;BMP180;6526;54.312;13.092;2023-03-12T04:05:04;101216.00;;;3.80
12918;BMP180;6526;54.312;13.092;2023-03-12T04:07:31;101208.00;;;3.80
12918;BMP180;6526;54.312;13.092;2023-03-12T04:09:57;101220.00;;;3.80
12918;BMP180;6526;54.312;13.092;2023-03-12T04:12:23;101215.00;;;3.80
12918;BMP180;6526;54.312;13.092;2023-03-12T04:14:51;101213.00;;;3.90
12918;BMP180;6526;54.312;13.092;2023-03-12T04:17:18;101207.00;;;3.90
12918;BMP180;6526;54.312;13.092;2023-03-12T04:19:44;101214.00;;;3.90
12918;BMP180;6526;54.312;13.092;2023-03-12T04:22:10;101212.00;;;3.80
12918;BMP180;6526;54.312;13.092;2023-03-12T04:24:36;101224.00;;;3.90
12918;BMP180;6526;54.312;13.092;2023-03-12T04:27:02;101230.00;;;3.80
12918;BMP180;6526;54.312;13.092;2023-03-12T04:29:28;101222.00;;;3.80
12918;BMP180;6526;54.312;13.092;2023-03-12T04:31:54;101226.00;;;3.70
12918;BMP180;6526;54.312;13.092;2023-03-12T04:34:21;101227.00;;;3.80
12918;BMP180;6526;54.312;13.092;2023-03-12T04:36:47;101234.00;;;3.70
12918;BMP180;6526;54.312;13.092;2023-03-12T04:39:17;101228.00;;;3.70
12918;BMP180;6526;54.312;13.092;2023-03-12T04:41:44;101225.00;;;3.70
12918;BMP180;6526;54.312;13.092;2023-03-12T04:44:10;101229.00;;;3.80
12918;BMP180;6526;54.312;13.092;2023-03-12T04:46:36;101236.00;;;3.70
12918;BMP180;6526;54.312;13.092;2023-03-12T04:49:03;101227.00;;;3.60
12918;BMP180;6526;54.312;13.092;2023-03-12T04:51:30;101233.00;;;3.70
12918;BMP180;6526;54.312;13.092;2023-03-12T04:53:57;101243.00;;;3.80
12918;BMP180;6526;54.312;13.092;2023-03-12T04:56:24;101238.00;;;3.80
12918;BMP180;6526;54.312;13.092;2023-03-12T04:58:50;101243.00;;;3.90
12918;BMP180;6526;54.312;13.092;2023-03-12T05:01:27;101233.00;;;3.90
12918;BMP180;6526;54.312;13.092;2023-03-12T05:03:56;101245.00;;;3.90
12918;BMP180;6526;54.312;13.092;2023-03-12T05:06:23;101240.00;;;3.90
12918;BMP180;6526;54.312;13.092;2023-03-12T05:08:49;101254.00;;;3.80
12918;BMP180;6526;54.312;13.092;2023-03-12T05:11:16;101239.00;;;3.70
12918;BMP180;6526;54.312;13.092;2023-03-12T05:13:43;101233.00;;;3.70
12918;BMP180;6526;54.312;13.092;2023-03-12T05:16:12;101254.00;;;3.70
12918;BMP180;6526;54.312;13.092;2023-03-12T05:18:39;101252.00;;;3.70
12918;BMP180;6526;54.312;13.092;2023-03-12T05:21:08;101252.00;;;3.70
12918;BMP180;6526;54.312;13.092;2023-03-12T05:23:34;101252.00;;;3.70
12918;BMP180;6526;54.312;13.092;2023-03-12T05:26:01;101260.00;;;3.70
12918;BMP180;6526;54.312;13.092;2023-03-12T05:28:27;101254.00;;;3.70
12918;BMP180;6526;54.312;13.092;2023-03-12T05:30:55;101259.00;;;3.60
12918;BMP180;6526;54.312;13.092;2023-03-12T05:33:21;101273.00;;;3.60
12918;BMP180;6526;54.312;13.092;2023-03-12T05:35:47;101267.00;;;3.50
12918;BMP180;6526;54.312;13.092;2023-03-12T05:38:13;101277.00;;;3.50
12918;BMP180;6526;54.312;13.092;2023-03-12T05:40:39;101270.00;;;3.50
12918;BMP180;6526;54.312;13.092;2023-03-12T05:43:05;101273.00;;;3.60
12918;BMP180;6526;54.312;13.092;2023-03-12T05:45:32;101282.00;;;3.60
12918;BMP180;6526;54.312;13.092;2023-03-12T05:47:59;101283.00;;;3.60
12918;BMP180;6526;54.312;13.092;2023-03-12T05:50:25;101278.00;;;3.70
12918;BMP180;6526;54.312;13.092;2023-03-12T05:52:51;101292.00;;;3.70
12918;BMP180;6526;54.312;13.092;2023-03-12T05:55:17;101281.00;;;3.70
12918;BMP180;6526;54.312;13.092;2023-03-12T05:57:43;101282.00;;;3.70
12918;BMP180;6526;54.312;13.092;2023-03-12T06:00:13;101289.00;;;3.70
12918;BMP180;6526;54.312;13.092;2023-03-12T06:02:39;101293.00;;;3.70
12918;BMP180;6526;54.312;13.092;2023-03-12T06:05:06;101271.00;;;3.70
12918;BMP180;6526;54.312;13.092;2023-03-12T06:07:34;101286.00;;;3.70
12918;BMP180;6526;54.312;13.092;2023-03-12T06:10:00;101292.00;;;3.90
12918;BMP180;6526;54.312;13.092;2023-03-12T06:12:26;101288.00;;;3.90
12918;BMP180;6526;54.312;13.092;2023-03-12T06:14:52;101296.00;;;3.90
12918;BMP180;6526;54.312;13.092;2023-03-12T06:17:18;101306.00;;;4.00
12918;BMP180;6526;54.312;13.092;2023-03-12T06:19:44;101299.00;;;4.10
12918;BMP180;6526;54.312;13.092;2023-03-12T06:22:10;101289.00;;;4.20
12918;BMP180;6526;54.312;13.092;2023-03-12T06:24:36;101286.00;;;4.20
12918;BMP180;6526;54.312;13.092;2023-03-12T06:27:02;101268.00;;;4.20
12918;BMP180;6526;54.312;13.092;2023-03-12T06:29:28;101306.00;;;4.30
12918;BMP180;6526;54.312;13.092;2023-03-12T06:31:54;101311.00;;;4.40
12918;BMP180;6526;54.312;13.092;2023-03-12T06:34:21;101305.00;;;4.50
12918;BMP180;6526;54.312;13.092;2023-03-12T06:36:47;101301.00;;;4.60
12918;BMP180;6526;54.312;13.092;2023-03-12T06:39:13;101306.00;;;4.70
12918;BMP180;6526;54.312;13.092;2023-03-12T06:41:39;101312.00;;;4.80
12918;BMP180;6526;54.312;13.092;2023-03-12T06:44:06;101316.00;;;4.90
12918;BMP180;6526;54.312;13.092;2023-03-12T06:46:32;101315.00;;;5.00
12918;BMP180;6526;54.312;13.092;2023-03-12T06:48:59;101320.00;;;5.00
12918;BMP180;6526;54.312;13.092;2023-03-12T06:51:25;101322.00;;;5.50
12918;BMP180;6526;54.312;13.092;2023-03-12T06:53:51;101317.00;;;5.60
12918;BMP180;6526;54.312;13.092;2023-03-12T06:56:17;101323.00;;;5.90
12918;BMP180;6526;54.312;13.092;2023-03-12T06:58:43;101334.00;;;5.90
12918;BMP180;6526;54.312;13.092;2023-03-12T07:01:10;101318.00;;;5.80
12918;BMP180;6526;54.312;13.092;2023-03-12T07:03:36;101321.00;;;5.70
12918;BMP180;6526;54.312;13.092;2023-03-12T07:06:02;101326.00;;;5.70
12918;BMP180;6526;54.312;13.092;2023-03-12T07:08:29;101335.00;;;5.80
12918;BMP180;6526;54.312;13.092;2023-03-12T07:10:56;101326.00;;;5.80
12918;BMP180;6526;54.312;13.092;2023-03-12T07:13:22;101329.00;;;6.00
12918;BMP180;6526;54.312;13.092;2023-03-12T07:15:49;101339.00;;;6.30
12918;BMP180;6526;54.312;13.092;2023-03-12T07:18:15;101337.00;;;6.40
12918;BMP180;6526;54.312;13.092;2023-03-12T07:20:42;101340.00;;;6.50
12918;BMP180;6526;54.312;13.092;2023-03-12T07:23:09;101339.00;;;6.30
12918;BMP180;6526;54.312;13.092;2023-03-12T07:25:37;101331.00;;;6.40
12918;BMP180;6526;54.312;13.092;2023-03-12T07:28:04;101334.00;;;6.40
12918;BMP180;6526;54.312;13.092;2023-03-12T07:30:32;101339.00;;;6.50
12918;BMP180;6526;54.312;13.092;2023-03-12T07:33:11;101335.00;;;6.50
12918;BMP180;6526;54.312;13.092;2023-03-12T07:35:38;101338.00;;;6.50
12918;BMP180;6526;54.312;13.092;2023-03-12T07:38:05;101344.00;;;6.60
12918;BMP180;6526;54.312;13.092;2023-03-12T07:40:32;101334.00;;;6.70
12918;BMP180;6526;54.312;13.092;2023-03-12T07:42:58;101333.00;;;6.80
12918;BMP180;6526;54.312;13.092;2023-03-12T07:45:25;101326.00;;;7.00
12918;BMP180;6526;54.312;13.092;2023-03-12T07:47:51;101336.00;;;7.20
12918;BMP180;6526;54.312;13.092;2023-03-12T07:50:17;101332.00;;;7.20
12918;BMP180;6526;54.312;13.092;2023-03-12T07:52:45;101336.00;;;7.50
12918;BMP180;6526;54.312;13.092;2023-03-12T07:55:12;101338.00;;;7.60
12918;BMP180;6526;54.312;13.092;2023-03-12T07:57:38;101343.00;;;7.60
12918;BMP180;6526;54.312;13.092;2023-03-12T08:00:05;101339.00;;;7.60
12918;BMP180;6526;54.312;13.092;2023-03-12T08:02:33;101338.00;;;7.70
12918;BMP180;6526;54.312;13.092;2023-03-12T08:04:59;101355.00;;;7.90
12918;BMP180;6526;54.312;13.092;2023-03-12T08:07:25;101352.00;;;7.80
12918;BMP180;6526;54.312;13.092;2023-03-12T08:09:57;101348.00;;;8.10
12918;BMP180;6526;54.312;13.092;2023-03-12T08:12:23;101337.00;;;8.20
12918;BMP180;6526;54.312;13.092;2023-03-12T08:14:49;101348.00;;;8.30
12918;BMP180;6526;54.312;13.092;2023-03-12T08:17:15;101346.00;;;8.10
12918;BMP180;6526;54.312;13.092;2023-03-12T08:19:42;101360.00;;;8.00
12918;BMP180;6526;54.312;13.092;2023-03-12T08:22:08;101368.00;;;8.00
12918;BMP180;6526;54.312;13.092;2023-03-12T08:24:34;101367.00;;;7.90
12918;BMP180;6526;54.312;13.092;2023-03-12T08:27:00;101383.00;;;7.90
12918;BMP180;6526;54.312;13.092;2023-03-12T08:29:26;101362.00;;;7.90
12918;BMP180;6526;54.312;13.092;2023-03-12T08:31:52;101369.00;;;7.80
12918;BMP180;6526;54.312;13.092;2023-03-12T08:34:19;101375.00;;;7.90
12918;BMP180;6526;54.312;13.092;2023-03-12T08:36:45;101374.00;;;8.10
12918;BMP180;6526;54.312;13.092;2023-03-12T08:39:12;101367.00;;;8.30
12918;BMP180;6526;54.312;13.092;2023-03-12T08:41:38;101369.00;;;8.30
12918;BMP180;6526;54.312;13.092;2023-03-12T08:44:04;101379.00;;;8.10
12918;BMP180;6526;54.312;13.092;2023-03-12T08:46:30;101373.00;;;8.00
12918;BMP180;6526;54.312;13.092;2023-03-12T08:48:56;101369.00;;;8.20
12918;BMP180;6526;54.312;13.092;2023-03-12T08:51:22;101364.00;;;8.40
12918;BMP180;6526;54.312;13.092;2023-03-12T08:53:48;101371.00;;;8.60
12918;BMP180;6526;54.312;13.092;2023-03-12T08:56:14;101377.00;;;8.90
12918;BMP180;6526;54.312;13.092;2023-03-12T08:58:40;101376.00;;;8.90
12918;BMP180;6526;54.312;13.092;2023-03-12T09:01:12;101372.00;;;8.90
12918;BMP180;6526;54.312;13.092;2023-03-12T09:03:38;101369.00;;;8.80
12918;BMP180;6526;54.312;13.092;2023-03-12T09:06:11;101371.00;;;8.70
12918;BMP180;6526;54.312;13.092;2023-03-12T09:08:42;101368.00;;;8.80
12918;BMP180;6526;54.312;13.092;2023-03-12T09:11:09;101360.00;;;8.90
12918;BMP180;6526;54.312;13.092;2023-03-12T09:13:37;101360.00;;;9.10
12918;BMP180;6526;54.312;13.092;2023-03-12T09:16:04;101358.00;;;9.10
12918;BMP180;6526;54.312;13.092;2023-03-12T09:18:32;101356.00;;;9.40
12918;BMP180;6526;54.312;13.092;2023-03-12T09:20:58;101352.00;;;9.40
12918;BMP180;6526;54.312;13.092;2023-03-12T09:23:25;101349.00;;;9.60
12918;BMP180;6526;54.312;13.092;2023-03-12T09:25:52;101334.00;;;9.70
12918;BMP180;6526;54.312;13.092;2023-03-12T09:28:19;101345.00;;;9.80
12918;BMP180;6526;54.312;13.092;2023-03-12T09:30:45;101348.00;;;9.80
12918;BMP180;6526;54.312;13.092;2023-03-12T09:33:12;101344.00;;;9.70
12918;BMP180;6526;54.312;13.092;2023-03-12T09:35:40;101336.00;;;9.70
12918;BMP180;6526;54.312;13.092;2023-03-12T09:38:06;101335.00;;;9.90
12918;BMP180;6526;54.312;13.092;2023-03-12T09:40:35;101338.00;;;9.90
12918;BMP180;6526;54.312;13.092;2023-03-12T09:43:03;101349.00;;;10.00
12918;BMP180;6526;54.312;13.092;2023-03-12T09:45:36;101347.00;;;9.90
12918;BMP180;6526;54.312;13.092;2023-03-12T09:48:05;101323.00;;;9.80
12918;BMP180;6526;54.312;13.092;2023-03-12T09:50:32;101336.00;;;10.00
12918;BMP180;6526;54.312;13.092;2023-03-12T09:55:49;101344.00;;;9.30
12918;BMP180;6526;54.312;13.092;2023-03-12T09:58:24;101351.00;;;9.40
12918;BMP180;6526;54.312;13.092;2023-03-12T10:00:57;101342.00;;;9.60
12918;BMP180;6526;54.312;13.092;2023-03-12T10:06:17;101340.00;;;10.00
12918;BMP180;6526;54.312;13.092;2023-03-12T10:09:12;101337.00;;;10.00
12918;BMP180;6526;54.312;13.092;2023-03-12T10:20:23;101335.00;;;10.30
12918;BMP180;6526;54.312;13.092;2023-03-12T10:23:11;101344.00;;;10.50
12918;BMP180;6526;54.312;13.092;2023-03-12T10:25:40;101351.00;;;10.40
12918;BMP180;6526;54.312;13.092;2023-03-12T10:28:30;101334.00;;;10.50
12918;BMP180;6526;54.312;13.092;2023-03-12T10:31:04;101327.00;;;10.60
12918;BMP180;6526;54.312;13.092;2023-03-12T10:33:49;101351.00;;;10.90
12918;BMP180;6526;54.312;13.092;2023-03-12T10:36:39;101346.00;;;10.90
12918;BMP180;6526;54.312;13.092;2023-03-12T10:39:14;101347.00;;;10.90
12918;BMP180;6526;54.312;13.092;2023-03-12T10:41:42;101347.00;;;10.90
12918;BMP180;6526;54.312;13.092;2023-03-12T10:44:21;101338.00;;;10.50
12918;BMP180;6526;54.312;13.092;2023-03-12T10:49:50;101341.00;;;10.20
12918;BMP180;6526;54.312;13.092;2023-03-12T10:52:19;101346.00;;;10.00
12918;BMP180;6526;54.312;13.092;2023-03-12T10:54:48;101345.00;;;9.90
12918;BMP180;6526;54.312;13.092;2023-03-12T10:57:17;101343.00;;;9.50
12918;BMP180;6526;54.312;13.092;2023-03-12T10:59:46;101341.00;;;9.30
12918;BMP180;6526;54.312;13.092;2023-03-12T11:02:29;101339.00;;;9.40
12918;BMP180;6526;54.312;13.092;2023-03-12T11:04:56;101307.00;;;9.20
12918;BMP180;6526;54.312;13.092;2023-03-12T11:07:33;101330.00;;;9.30
12918;BMP180;6526;54.312;13.092;2023-03-12T11:10:11;101336.00;;;9.50
12918;BMP180;6526;54.312;13.092;2023-03-12T11:12:39;101323.00;;;9.50
12918;BMP180;6526;54.312;13.092;2023-03-12T11:17:46;101306.00;;;9.30
12918;BMP180;6526;54.312;13.092;2023-03-12T11:20:29;101310.00;;;9.30
12918;BMP180;6526;54.312;13.092;2023-03-12T11:22:55;101307.00;;;9.30
12918;BMP180;6526;54.312;13.092;2023-03-12T11:25:27;101313.00;;;9.40
12918;BMP180;6526;54.312;13.092;2023-03-12T11:27:55;101298.00;;;9.40
12918;BMP180;6526;54.312;13.092;2023-03-12T11:30:37;101312.00;;;9.50
12918;BMP180;6526;54.312;13.092;2023-03-12T11:33:04;101304.00;;;9.60
12918;BMP180;6526;54.312;13.092;2023-03-12T11:38:26;101312.00;;;9.20
12918;BMP180;6526;54.312;13.092;2023-03-12T11:40:58;101301.00;;;9.20
12918;BMP180;6526;54.312;13.092;2023-03-12T11:43:43;101303.00;;;8.90
12918;BMP180;6526;54.312;13.092;2023-03-12T11:46:20;101306.00;;;8.80
12918;BMP180;6526;54.312;13.092;2023-03-12T11:57:23;101284.00;;;9.00
12918;BMP180;6526;54.312;13.092;2023-03-12T12:00:10;101283.00;;;8.80
12918;BMP180;6526;54.312;13.092;2023-03-12T12:08:45;101271.00;;;8.80
12918;BMP180;6526;54.312;13.092;2023-03-12T12:11:26;101273.00;;;8.90
12918;BMP180;6526;54.312;13.092;2023-03-12T12:19:51;101267.00;;;9.00
12918;BMP180;6526;54.312;13.092;2023-03-12T12:27:30;101273.00;;;9.10
12918;BMP180;6526;54.312;13.092;2023-03-12T12:35:37;101256.00;;;8.90
12918;BMP180;6526;54.312;13.092;2023-03-12T12:38:19;101256.00;;;8.90
12918;BMP180;6526;54.312;13.092;2023-03-12T12:40:50;101254.00;;;8.60
12918;BMP180;6526;54.312;13.092;2023-03-12T12:43:36;101260.00;;;8.60
12918;BMP180;6526;54.312;13.092;2023-03-12T12:46:19;101256.00;;;8.70
12918;BMP180;6526;54.312;13.092;2023-03-12T12:49:05;101248.00;;;8.80
12918;BMP180;6526;54.312;13.092;2023-03-12T12:51:42;101245.00;;;8.90
12918;BMP180;6526;54.312;13.092;2023-03-12T12:57:02;101237.00;;;8.70
12918;BMP180;6526;54.312;13.092;2023-03-12T13:02:03;101233.00;;;8.60
12918;BMP180;6526;54.312;13.092;2023-03-12T13:04:37;101237.00;;;8.70
12918;BMP180;6526;54.312;13.092;2023-03-12T13:09:42;101228.00;;;8.70
12918;BMP180;6526;54.312;13.092;2023-03-12T13:14:48;101246.00;;;8.90
12918;BMP180;6526;54.312;13.092;2023-03-12T13:17:29;101236.00;;;8.70
12918;BMP180;6526;54.312;13.092;2023-03-12T13:20:21;101240.00;;;8.60
12918;BMP180;6526;54.312;13.092;2023-03-12T13:30:53;101230.00;;;8.50
12918;BMP180;6526;54.312;13.092;2023-03-12T13:33:38;101241.00;;;8.50
12918;BMP180;6526;54.312;13.092;2023-03-12T13:36:18;101231.00;;;8.40
12918;BMP180;6526;54.312;13.092;2023-03-12T13:44:22;101225.00;;;8.30
12918;BMP180;6526;54.312;13.092;2023-03-12T13:50:00;101217.00;;;8.40
12918;BMP180;6526;54.312;13.092;2023-03-12T13:52:31;101209.00;;;8.30
12918;BMP180;6526;54.312;13.092;2023-03-12T13:57:40;101207.00;;;8.40
12918;BMP180;6526;54.312;13.092;2023-03-12T14:00:19;101188.00;;;8.30
12918;BMP180;6526;54.312;13.092;2023-03-12T14:03:13;101181.00;;;8.30
12918;BMP180;6526;54.312;13.092;2023-03-12T14:05:50;101172.00;;;8.20
12918;BMP180;6526;54.312;13.092;2023-03-12T14:16:54;101163.00;;;8.00
12918;BMP180;6526;54.312;13.092;2023-03-12T14:19:25;101150.00;;;8.00
12918;BMP180;6526;54.312;13.092;2023-03-12T14:21:52;101127.00;;;7.80
12918;BMP180;6526;54.312;13.092;2023-03-12T14:24:26;101147.00;;;7.60
12918;BMP180;6526;54.312;13.092;2023-03-12T14:26:54;101140.00;;;7.50
12918;BMP180;6526;54.312;13.092;2023-03-12T14:29:35;101125.00;;;7.40
12918;BMP180;6526;54.312;13.092;2023-03-12T14:32:13;101131.00;;;7.60
12918;BMP180;6526;54.312;13.092;2023-03-12T14:34:46;101146.00;;;7.70
12918;BMP180;6526;54.312;13.092;2023-03-12T14:37:31;101129.00;;;7.80
12918;BMP180;6526;54.312;13.092;2023-03-12T14:40:07;101130.00;;;7.60
12918;BMP180;6526;54.312;13.092;2023-03-12T14:42:39;101120.00;;;7.50
12918;BMP180;6526;54.312;13.092;2023-03-12T14:45:19;101118.00;;;7.50
12918;BMP180;6526;54.312;13.092;2023-03-12T14:47:47;101105.00;;;7.50
12918;BMP180;6526;54.312;13.092;2023-03-12T14:50:38;101103.00;;;7.60
12918;BMP180;6526;54.312;13.092;2023-03-12T14:53:19;101101.00;;;7.60
12918;BMP180;6526;54.312;13.092;2023-03-12T14:56:01;101094.00;;;7.60
12918;BMP180;6526;54.312;13.092;2023-03-12T14:58:28;101099.00;;;7.60
12918;BMP180;6526;54.312;13.092;2023-03-12T15:01:05;101099.00;;;7.60
12918;BMP180;6526;54.312;13.092;2023-03-12T15:03:40;101088.00;;;7.70
12918;BMP180;6526;54.312;13.092;2023-03-12T15:06:14;101099.00;;;7.40
12918;BMP180;6526;54.312;13.092;2023-03-12T15:08:42;101100.00;;;7.30
12918;BMP180;6526;54.312;13.092;2023-03-12T15:11:10;101081.00;;;7.30
12918;BMP180;6526;54.312;13.092;2023-03-12T15:13:37;101094.00;;;7.40
12918;BMP180;6526;54.312;13.092;2023-03-12T15:16:05;101091.00;;;7.50
12918;BMP180;6526;54.312;13.092;2023-03-12T15:18:32;101094.00;;;7.40
12918;BMP180;6526;54.312;13.092;2023-03-12T15:21:00;101085.00;;;7.40
12918;BMP180;6526;54.312;13.092;2023-03-12T15:23:29;101080.00;;;7.30
12918;BMP180;6526;54.312;13.092;2023-03-12T15:31:44;101058.00;;;7.30
12918;BMP180;6526;54.312;13.092;2023-03-12T15:34:12;101053.00;;;7.30
12918;BMP180;6526;54.312;13.092;2023-03-12T15:36:47;101071.00;;;7.20
12918;BMP180;6526;54.312;13.092;2023-03-12T15:39:20;101069.00;;;7.20
12918;BMP180;6526;54.312;13.092;2023-03-12T15:41:51;101070.00;;;7.20
12918;BMP180;6526;54.312;13.092;2023-03-12T15:44:19;101061.00;;;7.30
12918;BMP180;6526;54.312;13.092;2023-03-12T15:46:51;101060.00;;;7.20
12918;BMP180;6526;54.312;13.092;2023-03-12T15:49:26;101059.00;;;7.10
12918;BMP180;6526;54.312;13.092;2023-03-12T15:54:31;101039.00;;;7.10
12918;BMP180;6526;54.312;13.092;2023-03-12T15:57:21;101028.00;;;7.10
12918;BMP180;6526;54.312;13.092;2023-03-12T16:00:11;101008.00;;;6.90
12918;BMP180;6526;54.312;13.092;2023-03-12T16:05:16;101021.00;;;7.00
12918;BMP180;6526;54.312;13.092;2023-03-12T16:07:43;101009.00;;;7.10
12918;BMP180;6526;54.312;13.092;2023-03-12T16:10:13;101002.00;;;7.20